Time;durP1;ratioP1;P1;durP2;ratioP2;P2;SDS_P1;SDS_P2;PMS_P1;PMS_P2;Temp;Humidity;BMP_temperature;BMP_pressure;BME280_temperature;BME280_humidity;BME280_pressure;Samples;Min_cycle;Max_cycle;Signal;HPM_P1;HPM_P2
2021/11/02 00:01:00;;;;;;;8.75;2.05;;;;;;;;;;4959925;28;20047;-74
2021/11/02 00:03:27;;;;;;;6.30;1.67;;;;;;;;;;4960159;28;20061;-72
2021/11/02 00:05:54;;;;;;;9.02;1.80;;;;;;;;;;4962308;28;20034;-73
2021/11/02 00:08:20;;;;;;;15.70;2.35;;;;;;;;;;4960605;28;20147;-74
2021/11/02 00:10:46;;;;;;;7.18;1.38;;;;;;;;;;4965405;28;20027;-73
2021/11/02 00:13:12;;;;;;;7.53;1.80;;;;;;;;;;4964577;28;20041;-73
2021/11/02 00:15:41;;;;;;;5.97;1.48;;;;;;;;;;4963089;28;20023;-73
2021/11/02 00:18:08;;;;;;;10.32;2.53;;;;;;;;;;4964338;28;20374;-73
2021/11/02 00:20:37;;;;;;;8.65;2.15;;;;;;;;;;4964489;28;20054;-72
2021/11/02 00:23:05;;;;;;;7.40;2.03;;;;;;;;;;4964559;28;20049;-72
2021/11/02 00:25:32;;;;;;;5.70;1.75;;;;;;;;;;4962498;28;20030;-73
2021/11/02 00:28:00;;;;;;;17.63;1.80;;;;;;;;;;4962168;28;20694;-73
2021/11/02 00:30:27;;;;;;;6.82;1.80;;;;;;;;;;4964319;28;20019;-73
2021/11/02 00:32:55;;;;;;;4.20;1.60;;;;;;;;;;4966590;28;20538;-73
2021/11/02 00:35:22;;;;;;;9.30;2.22;;;;;;;;;;4966809;28;20031;-73
2021/11/02 00:37:48;;;;;;;6.10;2.15;;;;;;;;;;4967120;28;20076;-72
2021/11/02 00:40:15;;;;;;;7.07;1.75;;;;;;;;;;4965530;28;20633;-72
2021/11/02 00:42:50;;;;;;;9.07;1.70;;;;;;;;;;4967085;28;20031;-73
2021/11/02 00:45:26;;;;;;;7.20;1.60;;;;;;;;;;4966718;28;20080;-73
2021/11/02 00:47:53;;;;;;;6.82;1.27;;;;;;;;;;4966852;28;20023;-78
2021/11/02 00:50:19;;;;;;;3.78;1.30;;;;;;;;;;4966750;28;20494;-72
2021/11/02 00:52:45;;;;;;;8.82;2.20;;;;;;;;;;4965408;28;20105;-74
2021/11/02 00:55:11;;;;;;;7.65;1.70;;;;;;;;;;4966705;28;20034;-73
2021/11/02 00:57:38;;;;;;;6.63;2.03;;;;;;;;;;4966254;28;20070;-74
2021/11/02 01:00:05;;;;;;;7.95;1.77;;;;;;;;;;4966150;28;20617;-73
2021/11/02 01:02:31;;;;;;;6.07;1.45;;;;;;;;;;4966178;28;20134;-72
2021/11/02 01:04:57;;;;;;;5.13;1.45;;;;;;;;;;4966323;28;20519;-73
2021/11/02 01:07:24;;;;;;;5.65;1.55;;;;;;;;;;4965834;28;20109;-73
2021/11/02 01:09:50;;;;;;;8.57;1.88;;;;;;;;;;4966522;28;20027;-72
2021/11/02 01:12:16;;;;;;;7.28;1.40;;;;;;;;;;4966537;28;20033;-74
2021/11/02 01:14:43;;;;;;;6.47;1.90;;;;;;;;;;4966258;28;20027;-73
2021/11/02 01:17:10;;;;;;;6.43;1.98;;;;;;;;;;4964555;28;20058;-72
2021/11/02 01:19:36;;;;;;;7.35;2.17;;;;;;;;;;4966044;28;20074;-73
2021/11/02 01:22:03;;;;;;;7.22;1.92;;;;;;;;;;4966721;28;20027;-74
2021/11/02 01:24:29;;;;;;;17.13;2.28;;;;;;;;;;4966541;28;20027;-72
2021/11/02 01:26:56;;;;;;;8.52;2.42;;;;;;;;;;4966634;28;20023;-72
2021/11/02 01:29:22;;;;;;;17.90;3.35;;;;;;;;;;4964619;28;20067;-72
2021/11/02 01:31:49;;;;;;;14.15;2.85;;;;;;;;;;4965790;28;20055;-72
2021/11/02 01:34:15;;;;;;;12.35;2.25;;;;;;;;;;4966450;28;20023;-72
2021/11/02 01:36:42;;;;;;;12.25;2.45;;;;;;;;;;4966619;28;20062;-72
2021/11/02 01:39:08;;;;;;;13.90;2.55;;;;;;;;;;4965729;28;20158;-72
2021/11/02 01:41:37;;;;;;;12.50;2.60;;;;;;;;;;4964699;28;20034;-72
2021/11/02 01:44:04;;;;;;;15.57;2.47;;;;;;;;;;4966400;28;20082;-72
2021/11/02 01:46:32;;;;;;;13.60;3.42;;;;;;;;;;4966448;28;20054;-73
2021/11/02 01:48:59;;;;;;;12.38;2.45;;;;;;;;;;4966069;28;20106;-72
2021/11/02 01:51:27;;;;;;;8.70;2.63;;;;;;;;;;4966043;28;20464;-72
2021/11/02 01:53:53;;;;;;;17.67;3.15;;;;;;;;;;4964167;28;20034;-72
2021/11/02 01:56:21;;;;;;;12.90;3.25;;;;;;;;;;4965615;28;20165;-72
2021/11/02 01:58:49;;;;;;;12.43;2.47;;;;;;;;;;4966112;28;20035;-72
2021/11/02 02:01:19;;;;;;;11.80;2.10;;;;;;;;;;4965870;28;20066;-72
2021/11/02 02:04:15;;;;;;;10.57;2.30;;;;;;;;;;4952633;28;20039;-72
2021/11/02 02:06:41;;;;;;;12.77;2.10;;;;;;;;;;4929501;28;20043;-72
2021/11/02 02:09:10;;;;;;;12.80;2.83;;;;;;;;;;4968004;28;20050;-72
2021/11/02 02:11:40;;;;;;;12.65;2.97;;;;;;;;;;4968143;28;20061;-72
2021/11/02 02:14:25;;;;;;;11.63;2.15;;;;;;;;;;4966556;28;20054;-73
2021/11/02 02:16:51;;;;;;;11.93;2.17;;;;;;;;;;4966215;28;20661;-73
2021/11/02 02:19:34;;;;;;;16.33;2.88;;;;;;;;;;4964771;28;20038;-72
2021/11/02 02:22:06;;;;;;;11.70;2.13;;;;;;;;;;4966363;28;20038;-72
2021/11/02 02:24:36;;;;;;;10.57;2.38;;;;;;;;;;4966309;28;20098;-72
2021/11/02 02:27:06;;;;;;;9.40;2.50;;;;;;;;;;4966371;28;20029;-72
2021/11/02 02:29:34;;;;;;;12.23;2.63;;;;;;;;;;4968501;28;20025;-72
2021/11/02 02:32:01;;;;;;;11.05;1.77;;;;;;;;;;4967325;28;20038;-72
2021/11/02 02:34:27;;;;;;;8.40;2.17;;;;;;;;;;4970305;28;20030;-72
2021/11/02 02:36:53;;;;;;;12.05;2.05;;;;;;;;;;4971293;28;20030;-72
2021/11/02 02:39:21;;;;;;;11.57;2.30;;;;;;;;;;4969684;28;20023;-72
2021/11/02 02:41:47;;;;;;;11.10;2.72;;;;;;;;;;4971031;28;20383;-73
2021/11/02 02:44:14;;;;;;;14.63;2.60;;;;;;;;;;4970959;28;20027;-72
2021/11/02 02:46:40;;;;;;;13.02;3.03;;;;;;;;;;4971021;28;20114;-72
2021/11/02 02:49:08;;;;;;;10.52;2.08;;;;;;;;;;4970929;28;20026;-73
2021/11/02 02:51:35;;;;;;;12.20;2.95;;;;;;;;;;4970924;28;20109;-72
2021/11/02 02:54:02;;;;;;;11.63;2.45;;;;;;;;;;4969444;28;20038;-72
2021/11/02 02:56:29;;;;;;;16.45;2.83;;;;;;;;;;4969899;28;20064;-72
2021/11/02 02:58:58;;;;;;;14.07;2.72;;;;;;;;;;4970901;28;20098;-72
2021/11/02 03:01:26;;;;;;;13.50;2.70;;;;;;;;;;4970582;28;20134;-72
2021/11/02 03:04:06;;;;;;;14.07;2.42;;;;;;;;;;4969069;28;20553;-72
2021/11/02 03:06:34;;;;;;;15.05;2.65;;;;;;;;;;4969473;28;20030;-72
2021/11/02 03:09:00;;;;;;;15.43;2.90;;;;;;;;;;4968899;28;20019;-72
2021/11/02 03:11:29;;;;;;;18.05;2.75;;;;;;;;;;4968982;28;20114;-72
2021/11/02 03:13:57;;;;;;;12.88;3.03;;;;;;;;;;4970306;28;20076;-72
2021/11/02 03:16:38;;;;;;;14.27;3.10;;;;;;;;;;4970311;28;20062;-72
2021/11/02 03:44:29;;;;;;;15.95;2.45;;;;;;;;;;4950691;29;20034;-72
2021/11/02 03:49:58;;;;;;;14.35;2.97;;;;;;;;;;4950699;29;20526;-72
2021/11/02 03:55:06;;;;;;;13.00;2.40;;;;;;;;;;4950309;29;20059;-72
2021/11/02 03:57:44;;;;;;;14.55;2.92;;;;;;;;;;4950724;28;20778;-73
2021/11/02 04:00:41;;;;;;;9.32;2.17;;;;;;;;;;4950258;29;20043;-72
2021/11/02 04:25:42;;;;;;;15.60;2.60;;;;;;;;;;4945016;29;20028;-72
2021/11/02 08:47:35;;;;;;;9.15;2.13;;;;;;;;;;4924158;29;20043;-69
2021/11/02 08:50:03;;;;;;;7.05;1.85;;;;;;;;;;4925343;29;20087;-69
2021/11/02 08:52:32;;;;;;;12.50;2.22;;;;;;;;;;4924548;29;20062;-69
2021/11/02 08:54:58;;;;;;;7.00;1.98;;;;;;;;;;4923648;29;20456;-69
2021/11/02 08:57:25;;;;;;;7.63;1.77;;;;;;;;;;4924887;29;20039;-69
2021/11/02 08:59:52;;;;;;;7.22;1.90;;;;;;;;;;4923138;29;20487;-69
2021/11/02 09:02:23;;;;;;;8.25;1.83;;;;;;;;;;4925020;29;20228;-69
2021/11/02 09:04:54;;;;;;;9.48;1.42;;;;;;;;;;4924988;29;20020;-69
2021/11/02 09:07:23;;;;;;;8.63;1.88;;;;;;;;;;4920343;29;20034;-69
2021/11/02 09:09:50;;;;;;;6.18;1.65;;;;;;;;;;4916453;29;20028;-69
2021/11/02 09:12:16;;;;;;;8.88;2.45;;;;;;;;;;4920815;29;20031;-69
2021/11/02 09:14:45;;;;;;;8.98;2.05;;;;;;;;;;4924578;29;20232;-69
2021/11/02 09:17:11;;;;;;;9.10;2.35;;;;;;;;;;4924716;29;20030;-69
2021/11/02 09:19:37;;;;;;;11.00;2.00;;;;;;;;;;4924445;29;20058;-69
2021/11/02 09:22:05;;;;;;;6.20;1.58;;;;;;;;;;4923182;29;20027;-69
2021/11/02 09:24:31;;;;;;;11.50;1.67;;;;;;;;;;4924748;29;20030;-70
2021/11/02 09:26:59;;;;;;;6.30;1.60;;;;;;;;;;4918263;29;20613;-70
2021/11/02 09:29:25;;;;;;;8.32;1.70;;;;;;;;;;4909127;29;20040;-69
2021/11/02 09:31:55;;;;;;;7.45;2.10;;;;;;;;;;4905738;29;20020;-70
2021/11/02 09:34:22;;;;;;;5.90;2.17;;;;;;;;;;4916559;29;20118;-66
2021/11/02 09:36:58;;;;;;;9.23;2.35;;;;;;;;;;4923626;29;20058;-67
2021/11/02 09:39:27;;;;;;;13.68;3.03;;;;;;;;;;4913344;29;20040;-67
2021/11/02 09:42:12;;;;;;;9.65;2.83;;;;;;;;;;4927351;29;20487;-69
2021/11/02 09:44:51;;;;;;;6.85;2.33;;;;;;;;;;4913792;29;20558;-70
2021/11/02 09:47:29;;;;;;;10.80;2.42;;;;;;;;;;4927039;29;20479;-69
2021/11/02 09:50:23;;;;;;;9.40;2.00;;;;;;;;;;4920432;29;20099;-70
2021/11/02 09:53:01;;;;;;;9.85;2.83;;;;;;;;;;4913526;29;20171;-69
2021/11/02 09:55:46;;;;;;;8.02;2.47;;;;;;;;;;4918553;29;20136;-70
2021/11/02 09:58:12;;;;;;;7.45;2.80;;;;;;;;;;4939823;29;20586;-69
2021/11/02 10:00:46;;;;;;;10.77;3.08;;;;;;;;;;4927023;29;20376;-69
2021/11/02 10:03:32;;;;;;;11.18;2.38;;;;;;;;;;4927876;29;20027;-69
2021/11/02 10:06:18;;;;;;;13.18;3.03;;;;;;;;;;4908209;29;20028;-69
2021/11/02 10:09:08;;;;;;;11.02;3.75;;;;;;;;;;4909439;29;20684;-67
2021/11/02 10:11:44;;;;;;;11.18;2.53;;;;;;;;;;4905104;29;20040;-68
2021/11/02 10:14:13;;;;;;;6.65;1.70;;;;;;;;;;4919913;29;20103;-67
2021/11/02 10:16:42;;;;;;;11.55;2.20;;;;;;;;;;4920021;29;20571;-68
2021/11/02 10:19:22;;;;;;;11.27;2.70;;;;;;;;;;4903651;29;20032;-68
2021/11/02 10:22:00;;;;;;;10.23;2.30;;;;;;;;;;4911716;29;20031;-69
2021/11/02 10:24:36;;;;;;;9.75;3.30;;;;;;;;;;4925948;29;20028;-67
2021/11/02 10:27:08;;;;;;;14.57;3.28;;;;;;;;;;4914175;29;20028;-70
2021/11/02 10:29:42;;;;;;;8.00;2.28;;;;;;;;;;4908286;29;20131;-67
2021/11/02 10:32:11;;;;;;;11.80;2.58;;;;;;;;;;4907273;29;20028;-67
2021/11/02 10:34:44;;;;;;;4.82;1.77;;;;;;;;;;4907141;29;20087;-67
2021/11/02 10:37:31;;;;;;;9.32;1.73;;;;;;;;;;4907073;29;20035;-67
2021/11/02 10:40:15;;;;;;;8.45;2.15;;;;;;;;;;4908628;29;20036;-68
2021/11/02 10:42:53;;;;;;;6.30;1.73;;;;;;;;;;4908676;29;20050;-67
2021/11/02 10:45:24;;;;;;;7.15;1.55;;;;;;;;;;4906927;29;20075;-68
2021/11/02 10:47:50;;;;;;;7.78;1.95;;;;;;;;;;4926581;29;20082;-67
2021/11/02 10:50:17;;;;;;;7.53;1.50;;;;;;;;;;4922203;29;20123;-68
2021/11/02 10:52:47;;;;;;;9.18;1.60;;;;;;;;;;4912934;29;20051;-69
2021/11/02 10:55:33;;;;;;;11.07;2.15;;;;;;;;;;4926324;29;20388;-67
2021/11/02 10:58:10;;;;;;;8.80;1.63;;;;;;;;;;4925008;29;20626;-67
2021/11/02 11:00:36;;;;;;;8.32;1.73;;;;;;;;;;4925392;29;20042;-67
2021/11/02 11:03:06;;;;;;;9.43;1.90;;;;;;;;;;4926998;29;20027;-70
2021/11/02 11:05:33;;;;;;;7.57;2.13;;;;;;;;;;4926727;29;20122;-72
2021/11/02 11:08:01;;;;;;;12.18;2.00;;;;;;;;;;4927099;29;20027;-71
2021/11/02 11:10:28;;;;;;;11.98;1.70;;;;;;;;;;4925615;29;20774;-67
2021/11/02 11:12:56;;;;;;;9.75;1.75;;;;;;;;;;4925867;29;20685;-67
2021/11/02 11:15:24;;;;;;;7.35;1.60;;;;;;;;;;4925247;29;20550;-67
2021/11/02 11:17:55;;;;;;;8.10;1.70;;;;;;;;;;4924099;29;20024;-67
2021/11/02 11:20:21;;;;;;;11.57;2.05;;;;;;;;;;4926214;29;20083;-68
2021/11/02 11:22:51;;;;;;;6.78;1.45;;;;;;;;;;4926462;29;20040;-68
2021/11/02 11:25:36;;;;;;;7.00;1.85;;;;;;;;;;4912969;29;20032;-67
2021/11/02 11:28:03;;;;;;;8.88;1.75;;;;;;;;;;4921980;29;20036;-71
2021/11/02 11:30:31;;;;;;;4.93;1.52;;;;;;;;;;4926792;29;20597;-67
2021/11/02 11:32:57;;;;;;;10.30;2.10;;;;;;;;;;4924930;29;20028;-73
2021/11/02 11:35:24;;;;;;;7.80;1.65;;;;;;;;;;4926334;29;20391;-72
2021/11/02 11:37:51;;;;;;;9.20;2.25;;;;;;;;;;4926138;29;20051;-68
2021/11/02 11:40:19;;;;;;;10.75;2.35;;;;;;;;;;4926209;29;20074;-67
2021/11/02 11:42:47;;;;;;;13.48;2.13;;;;;;;;;;4926201;29;20432;-69
2021/11/02 11:45:15;;;;;;;9.40;1.88;;;;;;;;;;4926407;29;20115;-71
2021/11/02 11:47:41;;;;;;;7.07;1.65;;;;;;;;;;4923341;29;20031;-68
2021/11/02 11:50:29;;;;;;;12.05;2.17;;;;;;;;;;4926557;29;20031;-68
2021/11/02 11:52:59;;;;;;;6.95;1.55;;;;;;;;;;4925844;29;20059;-67
2021/11/02 11:55:33;;;;;;;8.50;1.55;;;;;;;;;;4918365;29;20088;-67
2021/11/02 11:58:06;;;;;;;10.38;2.25;;;;;;;;;;4907208;29;20040;-68
2021/11/02 12:00:33;;;;;;;7.90;1.58;;;;;;;;;;4907052;29;20032;-69
2021/11/02 12:03:12;;;;;;;16.85;2.83;;;;;;;;;;4918925;29;20364;-70
2021/11/02 12:05:43;;;;;;;8.73;1.50;;;;;;;;;;4926079;29;20027;-70
2021/11/02 12:08:17;;;;;;;7.50;2.00;;;;;;;;;;4922757;29;20616;-69
2021/11/02 12:10:44;;;;;;;5.90;1.65;;;;;;;;;;4906196;29;20024;-69
2021/11/02 12:13:11;;;;;;;10.63;1.98;;;;;;;;;;4906866;29;20063;-70
2021/11/02 12:15:49;;;;;;;8.52;1.60;;;;;;;;;;4905386;29;20063;-69
2021/11/02 12:18:17;;;;;;;6.25;1.42;;;;;;;;;;4917391;29;20023;-69
2021/11/02 12:20:43;;;;;;;12.32;2.10;;;;;;;;;;4924243;29;20106;-69
2021/11/02 12:23:18;;;;;;;8.88;1.75;;;;;;;;;;4923525;29;20051;-69
2021/11/02 12:25:50;;;;;;;9.20;2.10;;;;;;;;;;4923999;29;20024;-69
2021/11/02 12:28:35;;;;;;;8.10;1.63;;;;;;;;;;4924080;29;20066;-70
2021/11/02 12:31:02;;;;;;;9.90;1.75;;;;;;;;;;4925725;29;20035;-69
2021/11/02 12:33:29;;;;;;;11.18;1.73;;;;;;;;;;4925657;29;20024;-70
2021/11/02 12:35:57;;;;;;;6.90;1.77;;;;;;;;;;4924322;29;20051;-70
2021/11/02 12:38:32;;;;;;;7.28;1.75;;;;;;;;;;4925671;29;20396;-69
2021/11/02 12:40:59;;;;;;;11.00;2.28;;;;;;;;;;4925465;29;20046;-70
2021/11/02 12:43:26;;;;;;;8.10;1.60;;;;;;;;;;4925371;29;20023;-70
2021/11/02 12:45:53;;;;;;;8.00;2.05;;;;;;;;;;4925026;29;20035;-70
2021/11/02 12:48:20;;;;;;;6.90;1.55;;;;;;;;;;4924255;29;20028;-69
2021/11/02 12:50:47;;;;;;;9.40;1.50;;;;;;;;;;4925131;29;20036;-69
2021/11/02 12:53:14;;;;;;;9.50;2.15;;;;;;;;;;4925335;29;20464;-69
2021/11/02 12:55:41;;;;;;;5.90;1.67;;;;;;;;;;4925284;29;20090;-70
2021/11/02 12:58:13;;;;;;;7.88;1.52;;;;;;;;;;4925376;29;20027;-71
2021/11/02 13:00:53;;;;;;;6.95;1.52;;;;;;;;;;4920428;29;20051;-69
2021/11/02 13:03:20;;;;;;;8.20;1.60;;;;;;;;;;4924781;29;20363;-70
2021/11/02 13:06:13;;;;;;;6.20;1.40;;;;;;;;;;4924518;29;20030;-69
2021/11/02 13:08:57;;;;;;;11.25;2.88;;;;;;;;;;4919617;29;20118;-69
2021/11/02 13:11:25;;;;;;;9.25;1.52;;;;;;;;;;4924443;29;20019;-70
2021/11/02 13:13:59;;;;;;;5.25;1.45;;;;;;;;;;4910197;29;20076;-68
2021/11/02 13:16:27;;;;;;;5.93;1.42;;;;;;;;;;4905267;29;20032;-67
2021/11/02 13:18:53;;;;;;;9.15;2.13;;;;;;;;;;4906294;29;20088;-69
2021/11/02 13:21:26;;;;;;;9.82;1.73;;;;;;;;;;4905426;29;20135;-72
2021/11/02 13:23:56;;;;;;;4.65;1.58;;;;;;;;;;4905236;29;20035;-69
2021/11/02 13:26:23;;;;;;;8.80;1.80;;;;;;;;;;4912911;29;20058;-70
2021/11/02 13:28:50;;;;;;;6.85;1.52;;;;;;;;;;4903405;29;20111;-70
2021/11/02 13:31:30;;;;;;;10.63;2.13;;;;;;;;;;4905439;29;20025;-70
2021/11/02 13:33:57;;;;;;;9.88;2.15;;;;;;;;;;4907108;29;20111;-71
2021/11/02 13:36:23;;;;;;;9.60;1.77;;;;;;;;;;4927715;29;20499;-72
2021/11/02 13:38:50;;;;;;;7.28;1.88;;;;;;;;;;4906120;29;20032;-71
2021/11/02 13:41:16;;;;;;;13.05;2.28;;;;;;;;;;4924129;29;20040;-69
2021/11/02 13:43:43;;;;;;;7.93;1.20;;;;;;;;;;4924252;29;20020;-70
2021/11/02 13:46:14;;;;;;;7.57;1.50;;;;;;;;;;4923960;29;20480;-70
2021/11/02 13:48:41;;;;;;;7.75;1.58;;;;;;;;;;4909608;29;20032;-70
2021/11/02 13:51:09;;;;;;;11.32;1.98;;;;;;;;;;4919332;29;20111;-70
2021/11/02 13:53:35;;;;;;;6.40;1.48;;;;;;;;;;4914284;29;20039;-70
2021/11/02 13:56:14;;;;;;;6.43;1.70;;;;;;;;;;4924992;29;20036;-69
2021/11/02 13:58:40;;;;;;;9.50;1.65;;;;;;;;;;4924441;29;20034;-69
2021/11/02 14:01:09;;;;;;;6.75;1.45;;;;;;;;;;4924860;29;20119;-70
2021/11/02 14:03:44;;;;;;;10.45;2.28;;;;;;;;;;4923280;29;20020;-70
2021/11/02 14:06:11;;;;;;;3.22;1.38;;;;;;;;;;4924614;29;20051;-70
2021/11/02 14:08:38;;;;;;;9.40;1.60;;;;;;;;;;4924315;29;20023;-69
2021/11/02 14:11:17;;;;;;;6.18;1.73;;;;;;;;;;4924447;29;20032;-70
2021/11/02 14:13:47;;;;;;;7.07;1.52;;;;;;;;;;4923116;29;20395;-69
2021/11/02 14:16:14;;;;;;;6.70;2.05;;;;;;;;;;4924568;29;20031;-70
2021/11/02 14:18:40;;;;;;;7.60;2.20;;;;;;;;;;4924529;29;20123;-71
2021/11/02 14:21:07;;;;;;;7.38;1.40;;;;;;;;;;4924340;29;20098;-70
2021/11/02 14:23:37;;;;;;;10.70;1.75;;;;;;;;;;4924278;29;20039;-71
2021/11/02 14:26:28;;;;;;;7.70;1.50;;;;;;;;;;4926070;29;20054;-69
2021/11/02 14:28:58;;;;;;;5.97;1.20;;;;;;;;;;4927540;29;20095;-70
2021/11/02 14:31:37;;;;;;;7.28;1.27;;;;;;;;;;4927901;29;20062;-70
2021/11/02 14:34:07;;;;;;;5.45;1.33;;;;;;;;;;4928144;29;20031;-70
2021/11/02 14:36:40;;;;;;;5.47;1.20;;;;;;;;;;4926509;29;20056;-70
2021/11/02 14:39:07;;;;;;;6.82;1.80;;;;;;;;;;4928048;29;20472;-70
2021/11/02 14:41:34;;;;;;;5.47;1.45;;;;;;;;;;4927512;29;20032;-70
2021/11/02 14:44:24;;;;;;;7.53;1.73;;;;;;;;;;4926765;29;20138;-69
2021/11/02 14:46:51;;;;;;;4.85;1.10;;;;;;;;;;4917375;29;20039;-70
2021/11/02 14:49:30;;;;;;;4.78;1.42;;;;;;;;;;4924734;29;20129;-70
2021/11/02 14:52:06;;;;;;;7.70;1.63;;;;;;;;;;4907938;29;20531;-70
2021/11/02 14:54:35;;;;;;;8.45;1.58;;;;;;;;;;4907746;29;20056;-70
2021/11/02 14:57:20;;;;;;;8.90;2.22;;;;;;;;;;4907432;29;20087;-69
2021/11/02 14:59:52;;;;;;;4.95;1.02;;;;;;;;;;4914746;29;20154;-67
2021/11/02 15:02:18;;;;;;;;;;;;;;;;;;4913164;29;20070;-67
2021/11/02 15:04:45;;;;;;;3.47;0.98;;;;;;;;;;4913682;29;19958;-78
2021/11/02 15:07:15;;;;;;;7.45;1.63;;;;;;;;;;4907478;29;20028;-68
2021/11/02 15:09:41;;;;;;;9.05;1.52;;;;;;;;;;4914669;29;20070;-73
2021/11/02 15:12:08;;;;;;;5.15;1.48;;;;;;;;;;4909895;29;20511;-74
2021/11/02 15:14:35;;;;;;;4.85;1.23;;;;;;;;;;4908789;29;20036;-76
2021/11/02 15:17:06;;;;;;;4.60;1.33;;;;;;;;;;4908981;29;20028;-69
2021/11/02 15:19:38;;;;;;;3.33;1.07;;;;;;;;;;4906982;29;20103;-69
2021/11/02 15:22:16;;;;;;;7.80;1.25;;;;;;;;;;4907459;29;20433;-70
2021/11/02 15:24:55;;;;;;;6.80;1.30;;;;;;;;;;4905607;29;20317;-70
2021/11/02 15:27:31;;;;;;;7.53;1.42;;;;;;;;;;4907062;29;20091;-70
2021/11/02 15:30:03;;;;;;;8.18;1.40;;;;;;;;;;4909896;29;20059;-70
2021/11/02 15:32:36;;;;;;;4.60;1.20;;;;;;;;;;4924633;29;20071;-69
2021/11/02 15:35:04;;;;;;;9.82;1.40;;;;;;;;;;4926575;29;20027;-72
2021/11/02 15:37:34;;;;;;;4.25;1.20;;;;;;;;;;4924337;29;20023;-70
2021/11/02 15:40:00;;;;;;;11.25;1.10;;;;;;;;;;4926379;29;20027;-70
2021/11/02 15:42:31;;;;;;;9.10;1.40;;;;;;;;;;4926084;29;20027;-70
2021/11/02 15:44:59;;;;;;;8.98;1.35;;;;;;;;;;4924951;29;20027;-70
2021/11/02 15:47:26;;;;;;;6.97;1.02;;;;;;;;;;4925788;29;20520;-69
2021/11/02 15:49:56;;;;;;;4.22;0.93;;;;;;;;;;4925876;29;20028;-70
2021/11/02 15:52:24;;;;;;;2.80;0.80;;;;;;;;;;4924439;29;20035;-70
2021/11/02 15:54:50;;;;;;;19.02;1.42;;;;;;;;;;4925677;29;20060;-71
2021/11/02 15:57:16;;;;;;;2.85;0.70;;;;;;;;;;4925722;29;20043;-70
2021/11/02 15:59:43;;;;;;;4.45;0.70;;;;;;;;;;4924203;29;20126;-69
2021/11/02 16:02:09;;;;;;;4.25;1.48;;;;;;;;;;4926051;29;20483;-72
2021/11/02 16:04:35;;;;;;;2.20;0.80;;;;;;;;;;4925771;29;20090;-71
2021/11/02 16:07:06;;;;;;;2.53;0.93;;;;;;;;;;4928110;29;20110;-71
2021/11/02 16:09:51;;;;;;;1.98;1.00;;;;;;;;;;4928418;29;20020;-70
2021/11/02 16:12:18;;;;;;;3.33;0.90;;;;;;;;;;4929050;29;20023;-69
2021/11/02 16:14:49;;;;;;;2.55;0.93;;;;;;;;;;4927517;29;20019;-69
2021/11/02 16:17:15;;;;;;;3.80;1.05;;;;;;;;;;4928637;29;20031;-69
2021/11/02 16:19:42;;;;;;;2.88;1.00;;;;;;;;;;4928394;29;20024;-69
2021/11/02 16:22:09;;;;;;;5.30;0.90;;;;;;;;;;4924913;29;20024;-69
2021/11/02 16:24:37;;;;;;;2.58;1.00;;;;;;;;;;4928674;29;20471;-70
2021/11/02 16:27:22;;;;;;;3.35;1.10;;;;;;;;;;4928295;29;20027;-70
2021/11/02 16:29:49;;;;;;;23.17;2.05;;;;;;;;;;4927540;29;20131;-71
2021/11/02 16:32:22;;;;;;;5.95;1.40;;;;;;;;;;4926735;29;20388;-69
2021/11/02 16:34:49;;;;;;;4.95;1.13;;;;;;;;;;4927341;29;20031;-69
2021/11/02 16:37:28;;;;;;;7.10;1.50;;;;;;;;;;4925454;29;20514;-68
2021/11/02 16:40:27;;;;;;;7.10;1.10;;;;;;;;;;4922702;29;20580;-69
2021/11/02 16:42:56;;;;;;;4.53;1.00;;;;;;;;;;4893819;29;20492;-71
2021/11/02 16:45:23;;;;;;;3.05;1.05;;;;;;;;;;4926845;29;20674;-70
2021/11/02 16:47:56;;;;;;;2.42;0.98;;;;;;;;;;4927546;29;20431;-70
2021/11/02 16:50:26;;;;;;;3.35;1.20;;;;;;;;;;4929047;29;20368;-71
2021/11/02 16:52:52;;;;;;;3.33;0.93;;;;;;;;;;4928025;29;20032;-70
2021/11/02 16:55:19;;;;;;;4.53;1.05;;;;;;;;;;4926614;29;20023;-70
2021/11/02 16:57:47;;;;;;;4.32;0.80;;;;;;;;;;4927941;29;20019;-72
2021/11/02 17:00:15;;;;;;;2.75;0.82;;;;;;;;;;4926507;29;20074;-70
2021/11/02 17:02:45;;;;;;;6.13;1.10;;;;;;;;;;4926215;29;20034;-71
2021/11/02 17:05:25;;;;;;;2.38;0.70;;;;;;;;;;4923180;29;20055;-69
2021/11/02 17:08:03;;;;;;;3.78;0.80;;;;;;;;;;4927940;29;20051;-71
2021/11/02 17:10:34;;;;;;;6.35;1.10;;;;;;;;;;4927947;29;20447;-69
2021/11/02 17:13:04;;;;;;;2.97;0.70;;;;;;;;;;4925244;29;20126;-70
2021/11/02 17:15:50;;;;;;;2.50;0.80;;;;;;;;;;4925987;29;20107;-70
2021/11/02 17:18:17;;;;;;;3.35;0.70;;;;;;;;;;4907448;29;20086;-69
2021/11/02 17:20:45;;;;;;;2.75;1.38;;;;;;;;;;4906446;29;20412;-69
2021/11/02 17:23:11;;;;;;;4.18;0.52;;;;;;;;;;4920982;29;20619;-70
2021/11/02 17:25:37;;;;;;;4.57;0.70;;;;;;;;;;4923587;29;20131;-70
2021/11/02 17:28:04;;;;;;;7.32;0.93;;;;;;;;;;4924576;29;20575;-71
2021/11/02 17:30:32;;;;;;;2.13;0.70;;;;;;;;;;4925283;29;20031;-71
2021/11/02 17:32:59;;;;;;;2.45;0.77;;;;;;;;;;4923726;29;20036;-70
2021/11/02 17:35:25;;;;;;;1.45;0.70;;;;;;;;;;4921477;29;20106;-70
2021/11/02 17:37:53;;;;;;;2.88;0.82;;;;;;;;;;4917642;29;20028;-70
2021/11/02 17:40:21;;;;;;;3.42;0.75;;;;;;;;;;4918182;29;20035;-71
2021/11/02 17:42:49;;;;;;;1.90;0.70;;;;;;;;;;4919691;29;20452;-70
2021/11/02 17:45:16;;;;;;;2.45;0.90;;;;;;;;;;4924072;29;20059;-70
2021/11/02 17:47:43;;;;;;;2.72;0.88;;;;;;;;;;4913293;29;20040;-70
2021/11/02 17:50:09;;;;;;;2.35;0.70;;;;;;;;;;4905202;29;20020;-70
2021/11/02 17:52:36;;;;;;;2.85;0.93;;;;;;;;;;4905257;29;20059;-70
2021/11/02 17:55:03;;;;;;;5.20;1.10;;;;;;;;;;4904124;29;20168;-70
2021/11/02 17:57:29;;;;;;;2.58;1.10;;;;;;;;;;4906738;29;20096;-71
2021/11/02 17:59:56;;;;;;;3.33;1.30;;;;;;;;;;4909563;29;20040;-69
2021/11/02 18:02:22;;;;;;;5.05;1.08;;;;;;;;;;4910973;29;20032;-71
2021/11/02 18:04:49;;;;;;;4.75;1.20;;;;;;;;;;4917252;29;20032;-72
2021/11/02 18:07:15;;;;;;;1.77;0.88;;;;;;;;;;4925878;29;20059;-70
2021/11/02 18:09:42;;;;;;;4.65;1.15;;;;;;;;;;4919473;29;20020;-70
2021/11/02 18:12:08;;;;;;;5.35;1.20;;;;;;;;;;4920569;29;20114;-70
2021/11/02 18:14:35;;;;;;;10.95;1.63;;;;;;;;;;4927730;29;20036;-70
2021/11/02 18:17:01;;;;;;;6.63;1.00;;;;;;;;;;4923845;29;20020;-71
2021/11/02 18:19:28;;;;;;;3.80;0.95;;;;;;;;;;4919584;29;20027;-70
2021/11/02 18:21:57;;;;;;;7.93;1.05;;;;;;;;;;4922326;29;20062;-70
2021/11/02 18:24:23;;;;;;;3.22;1.05;;;;;;;;;;4925153;29;20032;-69
2021/11/02 18:26:50;;;;;;;2.78;0.98;;;;;;;;;;4911973;29;20067;-70
2021/11/02 18:29:16;;;;;;;2.47;0.82;;;;;;;;;;4912812;29;20118;-69
2021/11/02 18:31:42;;;;;;;4.07;1.02;;;;;;;;;;4924824;29;20023;-70
2021/11/02 18:34:10;;;;;;;6.13;1.10;;;;;;;;;;4926503;29;20130;-70
2021/11/02 18:36:36;;;;;;;4.85;0.90;;;;;;;;;;4926188;29;20091;-70
2021/11/02 18:39:04;;;;;;;3.97;0.95;;;;;;;;;;4921908;29;20034;-71
2021/11/02 18:41:31;;;;;;;3.80;1.15;;;;;;;;;;4923939;29;20040;-71
2021/11/02 18:43:58;;;;;;;2.55;0.70;;;;;;;;;;4912834;29;20059;-70
2021/11/02 18:46:25;;;;;;;2.58;0.90;;;;;;;;;;4922776;29;20496;-71
2021/11/02 18:48:52;;;;;;;2.60;0.80;;;;;;;;;;4926638;29;20027;-71
2021/11/02 18:51:18;;;;;;;2.78;1.00;;;;;;;;;;4923451;29;20554;-71
2021/11/02 18:53:44;;;;;;;2.85;1.17;;;;;;;;;;4924683;29;20111;-70
2021/11/02 18:56:11;;;;;;;1.73;0.95;;;;;;;;;;4927101;29;20387;-70
2021/11/02 18:58:38;;;;;;;1.67;0.90;;;;;;;;;;4926945;29;20032;-71
2021/11/02 19:01:05;;;;;;;3.30;1.25;;;;;;;;;;4927278;29;20036;-71
2021/11/02 19:03:31;;;;;;;4.18;0.93;;;;;;;;;;4912448;29;20026;-71
2021/11/02 19:05:57;;;;;;;3.22;1.00;;;;;;;;;;4922723;29;20312;-71
2021/11/02 19:08:23;;;;;;;1.88;1.10;;;;;;;;;;4919373;29;20059;-71
2021/11/02 19:10:51;;;;;;;4.88;1.15;;;;;;;;;;4924925;29;20028;-70
2021/11/02 19:13:18;;;;;;;2.38;1.13;;;;;;;;;;4909809;29;20035;-70
2021/11/02 19:15:45;;;;;;;3.15;1.73;;;;;;;;;;4916718;29;20380;-70
2021/11/02 19:18:12;;;;;;;6.47;1.83;;;;;;;;;;4923836;29;20039;-72
2021/11/02 19:20:38;;;;;;;4.80;1.52;;;;;;;;;;4924081;29;20031;-71
2021/11/02 19:23:04;;;;;;;7.30;1.73;;;;;;;;;;4922566;29;20045;-71
2021/11/02 19:25:33;;;;;;;4.80;1.35;;;;;;;;;;4923034;29;20027;-71
2021/11/02 19:27:59;;;;;;;2.40;1.48;;;;;;;;;;4915325;29;20569;-72
2021/11/02 19:30:25;;;;;;;4.75;1.50;;;;;;;;;;4925187;29;20110;-71
2021/11/02 19:32:54;;;;;;;4.47;1.02;;;;;;;;;;4926327;29;20062;-70
2021/11/02 19:35:20;;;;;;;5.43;1.52;;;;;;;;;;4924442;29;20122;-70
2021/11/02 19:37:46;;;;;;;3.58;1.38;;;;;;;;;;4924637;29;20499;-69
2021/11/02 19:40:13;;;;;;;4.38;1.00;;;;;;;;;;4916357;29;20040;-70
2021/11/02 19:42:41;;;;;;;4.20;1.00;;;;;;;;;;4923426;29;20027;-69
2021/11/02 19:45:08;;;;;;;5.07;1.48;;;;;;;;;;4915399;29;20028;-70
2021/11/02 19:47:34;;;;;;;4.88;1.75;;;;;;;;;;4920760;29;20086;-70
2021/11/02 19:50:01;;;;;;;5.20;1.23;;;;;;;;;;4922791;29;20055;-70
2021/11/02 19:52:27;;;;;;;3.70;1.52;;;;;;;;;;4921777;29;20034;-68
2021/11/02 19:54:54;;;;;;;5.00;1.63;;;;;;;;;;4925343;29;20094;-69
2021/11/02 19:57:22;;;;;;;4.10;1.60;;;;;;;;;;4921135;29;20024;-69
2021/11/02 19:59:48;;;;;;;7.13;1.90;;;;;;;;;;4913807;29;20379;-69
2021/11/02 20:02:14;;;;;;;6.55;1.80;;;;;;;;;;4917537;29;20023;-69
2021/11/02 20:04:41;;;;;;;5.90;2.22;;;;;;;;;;4920856;29;20032;-70
2021/11/02 20:07:12;;;;;;;7.88;2.58;;;;;;;;;;4923280;29;20036;-70
2021/11/02 20:09:42;;;;;;;5.03;2.10;;;;;;;;;;4920985;29;20122;-69